sensor_id;sensor_type;location;lat;lon;timestamp;temperature;humidity
17701;DHT22;8969;48.576;12.580;2023-11-21T00:00:07;5.00;99.90
17701;DHT22;8969;48.576;12.580;2023-11-21T00:02:41;5.00;99.90
17701;DHT22;8969;48.576;12.580;2023-11-21T00:05:09;5.10;99.90
17701;DHT22;8969;48.576;12.580;2023-11-21T00:07:37;5.10;99.90
17701;DHT22;8969;48.576;12.580;2023-11-21T00:10:11;5.00;99.90
17701;DHT22;8969;48.576;12.580;2023-11-21T00:12:42;5.10;99.90
17701;DHT22;8969;48.576;12.580;2023-11-21T00:15:11;5.10;99.90
17701;DHT22;8969;48.576;12.580;2023-11-21T00:17:41;5.10;99.90
17701;DHT22;8969;48.576;12.580;2023-11-21T00:20:10;5.10;99.90
17701;DHT22;8969;48.576;12.580;2023-11-21T00:22:41;5.10;99.90
17701;DHT22;8969;48.576;12.580;2023-11-21T00:25:12;5.10;99.90
17701;DHT22;8969;48.576;12.580;2023-11-21T00:27:42;5.10;99.90
17701;DHT22;8969;48.576;12.580;2023-11-21T00:30:10;5.10;99.90
17701;DHT22;8969;48.576;12.580;2023-11-21T00:32:38;5.10;99.90
17701;DHT22;8969;48.576;12.580;2023-11-21T00:35:07;5.10;99.90
17701;DHT22;8969;48.576;12.580;2023-11-21T00:37:35;5.20;99.90
17701;DHT22;8969;48.576;12.580;2023-11-21T00:40:07;5.20;99.90
17701;DHT22;8969;48.576;12.580;2023-11-21T00:42:38;5.30;99.90
17701;DHT22;8969;48.576;12.580;2023-11-21T00:45:07;5.30;99.90
17701;DHT22;8969;48.576;12.580;2023-11-21T00:47:36;5.30;99.90
17701;DHT22;8969;48.576;12.580;2023-11-21T00:50:07;5.20;99.90
17701;DHT22;8969;48.576;12.580;2023-11-21T00:52:35;5.20;99.90
17701;DHT22;8969;48.576;12.580;2023-11-21T00:55:04;5.20;99.90
17701;DHT22;8969;48.576;12.580;2023-11-21T00:57:34;5.20;99.90
17701;DHT22;8969;48.576;12.580;2023-11-21T01:00:05;5.20;99.90
17701;DHT22;8969;48.576;12.580;2023-11-21T01:02:37;5.20;99.90
17701;DHT22;8969;48.576;12.580;2023-11-21T01:05:06;5.20;99.90
17701;DHT22;8969;48.576;12.580;2023-11-21T01:07:35;5.20;99.90
17701;DHT22;8969;48.576;12.580;2023-11-21T01:10:06;5.20;99.90
17701;DHT22;8969;48.576;12.580;2023-11-21T01:12:34;5.20;99.90
17701;DHT22;8969;48.576;12.580;2023-11-21T01:15:07;5.20;99.90
17701;DHT22;8969;48.576;12.580;2023-11-21T01:17:36;5.20;99.90
17701;DHT22;8969;48.576;12.580;2023-11-21T01:20:06;5.30;99.90
17701;DHT22;8969;48.576;12.580;2023-11-21T01:22:40;5.30;99.90
17701;DHT22;8969;48.576;12.580;2023-11-21T01:25:09;5.30;99.90
17701;DHT22;8969;48.576;12.580;2023-11-21T01:27:37;5.30;99.90
17701;DHT22;8969;48.576;12.580;2023-11-21T01:30:08;5.40;99.90
17701;DHT22;8969;48.576;12.580;2023-11-21T01:32:37;5.40;99.90
17701;DHT22;8969;48.576;12.580;2023-11-21T01:35:07;5.40;99.90
17701;DHT22;8969;48.576;12.580;2023-11-21T01:37:36;5.40;99.90
17701;DHT22;8969;48.576;12.580;2023-11-21T01:40:06;5.40;99.90
17701;DHT22;8969;48.576;12.580;2023-11-21T01:42:37;5.40;99.90
17701;DHT22;8969;48.576;12.580;2023-11-21T01:45:08;5.40;99.90
17701;DHT22;8969;48.576;12.580;2023-11-21T01:47:38;5.50;99.90
17701;DHT22;8969;48.576;12.580;2023-11-21T01:50:08;5.50;99.90
17701;DHT22;8969;48.576;12.580;2023-11-21T01:52:39;5.50;99.90
17701;DHT22;8969;48.576;12.580;2023-11-21T01:55:08;5.60;99.90
17701;DHT22;8969;48.576;12.580;2023-11-21T01:57:36;5.60;99.90
17701;DHT22;8969;48.576;12.580;2023-11-21T02:00:08;5.60;99.90
17701;DHT22;8969;48.576;12.580;2023-11-21T02:02:43;5.70;99.90
17701;DHT22;8969;48.576;12.580;2023-11-21T02:05:12;5.70;99.90
17701;DHT22;8969;48.576;12.580;2023-11-21T02:07:41;5.70;99.90
17701;DHT22;8969;48.576;12.580;2023-11-21T02:10:09;5.70;99.90
17701;DHT22;8969;48.576;12.580;2023-11-21T02:12:41;5.60;99.90
17701;DHT22;8969;48.576;12.580;2023-11-21T02:15:12;5.60;99.90
17701;DHT22;8969;48.576;12.580;2023-11-21T02:17:47;5.60;99.90
17701;DHT22;8969;48.576;12.580;2023-11-21T02:20:19;5.60;99.90
17701;DHT22;8969;48.576;12.580;2023-11-21T02:22:52;5.60;99.90
17701;DHT22;8969;48.576;12.580;2023-11-21T02:25:25;5.60;99.90
17701;DHT22;8969;48.576;12.580;2023-11-21T02:27:54;5.60;99.90
17701;DHT22;8969;48.576;12.580;2023-11-21T02:30:23;5.60;99.90
17701;DHT22;8969;48.576;12.580;2023-11-21T02:32:52;5.60;99.90
17701;DHT22;8969;48.576;12.580;2023-11-21T02:35:20;5.60;99.90
17701;DHT22;8969;48.576;12.580;2023-11-21T02:37:50;5.60;99.90
17701;DHT22;8969;48.576;12.580;2023-11-21T02:40:18;5.60;99.90
17701;DHT22;8969;48.576;12.580;2023-11-21T02:42:48;5.60;99.90
17701;DHT22;8969;48.576;12.580;2023-11-21T02:45:19;5.60;99.90
17701;DHT22;8969;48.576;12.580;2023-11-21T02:47:50;5.70;99.90
17701;DHT22;8969;48.576;12.580;2023-11-21T02:50:20;5.70;99.90
17701;DHT22;8969;48.576;12.580;2023-11-21T02:52:52;5.70;99.90
17701;DHT22;8969;48.576;12.580;2023-11-21T02:55:20;5.70;99.90
17701;DHT22;8969;48.576;12.580;2023-11-21T02:57:49;5.80;99.90
17701;DHT22;8969;48.576;12.580;2023-11-21T03:00:17;5.80;99.90
17701;DHT22;8969;48.576;12.580;2023-11-21T03:02:46;5.80;99.90
17701;DHT22;8969;48.576;12.580;2023-11-21T03:05:14;5.80;99.90
17701;DHT22;8969;48.576;12.580;2023-11-21T03:07:43;5.80;99.90
17701;DHT22;8969;48.576;12.580;2023-11-21T03:10:13;5.90;99.90
17701;DHT22;8969;48.576;12.580;2023-11-21T03:12:41;5.90;99.90
17701;DHT22;8969;48.576;12.580;2023-11-21T03:15:09;5.90;99.90
17701;DHT22;8969;48.576;12.580;2023-11-21T03:17:37;5.90;99.90
17701;DHT22;8969;48.576;12.580;2023-11-21T03:20:07;5.90;99.90
17701;DHT22;8969;48.576;12.580;2023-11-21T03:22:38;5.90;99.90
17701;DHT22;8969;48.576;12.580;2023-11-21T03:25:07;5.90;99.90
17701;DHT22;8969;48.576;12.580;2023-11-21T03:27:39;5.90;99.90
17701;DHT22;8969;48.576;12.580;2023-11-21T03:30:09;5.90;99.90
17701;DHT22;8969;48.576;12.580;2023-11-21T03:32:37;5.90;99.90
17701;DHT22;8969;48.576;12.580;2023-11-21T03:35:06;5.90;99.90
17701;DHT22;8969;48.576;12.580;2023-11-21T03:37:34;5.90;99.90
17701;DHT22;8969;48.576;12.580;2023-11-21T03:40:07;5.80;99.90
17701;DHT22;8969;48.576;12.580;2023-11-21T03:42:36;5.90;99.90
17701;DHT22;8969;48.576;12.580;2023-11-21T03:45:07;5.90;99.90
17701;DHT22;8969;48.576;12.580;2023-11-21T03:47:36;5.90;99.90
17701;DHT22;8969;48.576;12.580;2023-11-21T03:50:05;5.90;99.90
17701;DHT22;8969;48.576;12.580;2023-11-21T03:52:35;5.90;99.90
17701;DHT22;8969;48.576;12.580;2023-11-21T03:55:04;5.90;99.90
17701;DHT22;8969;48.576;12.580;2023-11-21T03:57:32;5.90;99.90
17701;DHT22;8969;48.576;12.580;2023-11-21T04:00:00;5.90;99.90
17701;DHT22;8969;48.576;12.580;2023-11-21T04:02:39;5.90;99.90
17701;DHT22;8969;48.576;12.580;2023-11-21T04:05:07;5.90;99.90
17701;DHT22;8969;48.576;12.580;2023-11-21T04:07:36;6.00;99.90
17701;DHT22;8969;48.576;12.580;2023-11-21T04:10:06;6.00;99.90
17701;DHT22;8969;48.576;12.580;2023-11-21T04:12:36;6.00;99.90
17701;DHT22;8969;48.576;12.580;2023-11-21T04:15:05;6.00;99.90
17701;DHT22;8969;48.576;12.580;2023-11-21T04:17:36;6.00;99.90
17701;DHT22;8969;48.576;12.580;2023-11-21T04:20:07;6.00;99.90
17701;DHT22;8969;48.576;12.580;2023-11-21T04:22:37;6.00;99.90
17701;DHT22;8969;48.576;12.580;2023-11-21T04:25:09;6.10;99.90
17701;DHT22;8969;48.576;12.580;2023-11-21T04:27:39;6.00;99.90
17701;DHT22;8969;48.576;12.580;2023-11-21T04:30:07;6.00;99.90
17701;DHT22;8969;48.576;12.580;2023-11-21T04:32:37;6.10;99.90
17701;DHT22;8969;48.576;12.580;2023-11-21T04:35:08;6.00;99.90
17701;DHT22;8969;48.576;12.580;2023-11-21T04:37:37;6.00;99.90
17701;DHT22;8969;48.576;12.580;2023-11-21T04:40:06;6.10;99.90
17701;DHT22;8969;48.576;12.580;2023-11-21T04:42:35;6.00;99.90
17701;DHT22;8969;48.576;12.580;2023-11-21T04:45:04;6.10;99.90
17701;DHT22;8969;48.576;12.580;2023-11-21T04:47:36;6.10;99.90
17701;DHT22;8969;48.576;12.580;2023-11-21T04:50:05;6.10;99.90
17701;DHT22;8969;48.576;12.580;2023-11-21T04:52:35;6.10;99.90
17701;DHT22;8969;48.576;12.580;2023-11-21T04:55:04;6.10;99.90
17701;DHT22;8969;48.576;12.580;2023-11-21T04:57:34;6.20;99.90
17701;DHT22;8969;48.576;12.580;2023-11-21T05:00:03;6.10;99.90
17701;DHT22;8969;48.576;12.580;2023-11-21T05:02:33;6.20;99.90
17701;DHT22;8969;48.576;12.580;2023-11-21T05:05:02;6.20;99.90
17701;DHT22;8969;48.576;12.580;2023-11-21T05:07:34;6.20;99.90
17701;DHT22;8969;48.576;12.580;2023-11-21T05:10:04;6.20;99.90
17701;DHT22;8969;48.576;12.580;2023-11-21T05:12:35;6.20;99.90
17701;DHT22;8969;48.576;12.580;2023-11-21T05:15:06;6.20;99.90
17701;DHT22;8969;48.576;12.580;2023-11-21T05:17:37;6.20;99.90
17701;DHT22;8969;48.576;12.580;2023-11-21T05:20:07;6.30;99.90
17701;DHT22;8969;48.576;12.580;2023-11-21T05:22:38;6.20;99.90
17701;DHT22;8969;48.576;12.580;2023-11-21T05:25:08;6.20;99.90
17701;DHT22;8969;48.576;12.580;2023-11-21T05:27:38;6.30;99.90
17701;DHT22;8969;48.576;12.580;2023-11-21T05:30:06;6.30;99.90
17701;DHT22;8969;48.576;12.580;2023-11-21T05:32:36;6.30;99.90
17701;DHT22;8969;48.576;12.580;2023-11-21T05:35:05;6.30;99.90
17701;DHT22;8969;48.576;12.580;2023-11-21T05:37:37;6.30;99.90
17701;DHT22;8969;48.576;12.580;2023-11-21T05:40:07;6.30;99.90
17701;DHT22;8969;48.576;12.580;2023-11-21T05:42:37;6.30;99.90
17701;DHT22;8969;48.576;12.580;2023-11-21T05:45:06;6.30;99.90
17701;DHT22;8969;48.576;12.580;2023-11-21T05:47:38;6.30;99.90
17701;DHT22;8969;48.576;12.580;2023-11-21T05:50:09;6.30;99.90
17701;DHT22;8969;48.576;12.580;2023-11-21T05:52:44;6.30;99.90
17701;DHT22;8969;48.576;12.580;2023-11-21T05:55:13;6.30;99.90
17701;DHT22;8969;48.576;12.580;2023-11-21T05:57:42;6.30;99.90
17701;DHT22;8969;48.576;12.580;2023-11-21T06:00:12;6.30;99.90
17701;DHT22;8969;48.576;12.580;2023-11-21T06:02:45;6.30;99.90
17701;DHT22;8969;48.576;12.580;2023-11-21T06:05:13;6.30;99.90
17701;DHT22;8969;48.576;12.580;2023-11-21T06:07:43;6.40;99.90
17701;DHT22;8969;48.576;12.580;2023-11-21T06:10:12;6.30;99.90
17701;DHT22;8969;48.576;12.580;2023-11-21T06:12:42;6.30;99.90
17701;DHT22;8969;48.576;12.580;2023-11-21T06:15:11;6.30;99.90
17701;DHT22;8969;48.576;12.580;2023-11-21T06:17:42;6.40;99.90
17701;DHT22;8969;48.576;12.580;2023-11-21T06:20:28;6.40;99.90
17701;DHT22;8969;48.576;12.580;2023-11-21T06:22:58;6.40;99.90
17701;DHT22;8969;48.576;12.580;2023-11-21T06:25:32;6.40;99.90
17701;DHT22;8969;48.576;12.580;2023-11-21T06:28:03;6.40;99.90
17701;DHT22;8969;48.576;12.580;2023-11-21T06:30:32;6.50;99.90
17701;DHT22;8969;48.576;12.580;2023-11-21T06:33:02;6.40;99.90
17701;DHT22;8969;48.576;12.580;2023-11-21T06:35:32;6.50;99.90
17701;DHT22;8969;48.576;12.580;2023-11-21T06:38:03;6.50;99.90
17701;DHT22;8969;48.576;12.580;2023-11-21T06:40:34;6.50;99.90
17701;DHT22;8969;48.576;12.580;2023-11-21T06:43:27;6.50;99.90
17701;DHT22;8969;48.576;12.580;2023-11-21T06:45:56;6.50;99.90
17701;DHT22;8969;48.576;12.580;2023-11-21T06:48:25;6.50;99.90
17701;DHT22;8969;48.576;12.580;2023-11-21T06:50:54;6.50;99.90
17701;DHT22;8969;48.576;12.580;2023-11-21T06:53:24;6.50;99.90
17701;DHT22;8969;48.576;12.580;2023-11-21T06:55:52;6.50;99.90
17701;DHT22;8969;48.576;12.580;2023-11-21T06:58:21;6.50;99.90
17701;DHT22;8969;48.576;12.580;2023-11-21T07:00:50;6.60;99.90
17701;DHT22;8969;48.576;12.580;2023-11-21T07:03:22;6.60;99.90
17701;DHT22;8969;48.576;12.580;2023-11-21T07:05:51;6.60;99.90
17701;DHT22;8969;48.576;12.580;2023-11-21T07:08:21;6.60;99.90
17701;DHT22;8969;48.576;12.580;2023-11-21T07:10:50;6.60;99.90
17701;DHT22;8969;48.576;12.580;2023-11-21T07:13:20;6.70;99.90
17701;DHT22;8969;48.576;12.580;2023-11-21T07:15:49;6.60;99.90
17701;DHT22;8969;48.576;12.580;2023-11-21T07:18:19;6.70;99.90
17701;DHT22;8969;48.576;12.580;2023-11-21T07:20:46;6.70;99.90
17701;DHT22;8969;48.576;12.580;2023-11-21T07:23:16;6.70;99.90
17701;DHT22;8969;48.576;12.580;2023-11-21T07:25:45;6.70;99.90
17701;DHT22;8969;48.576;12.580;2023-11-21T07:28:16;6.80;99.90
17701;DHT22;8969;48.576;12.580;2023-11-21T07:30:47;6.80;99.90
17701;DHT22;8969;48.576;12.580;2023-11-21T07:33:15;6.80;99.90
17701;DHT22;8969;48.576;12.580;2023-11-21T07:35:44;6.80;99.90
17701;DHT22;8969;48.576;12.580;2023-11-21T07:38:18;6.90;99.90
17701;DHT22;8969;48.576;12.580;2023-11-21T07:40:47;6.90;99.90
17701;DHT22;8969;48.576;12.580;2023-11-21T07:43:17;6.90;99.90
17701;DHT22;8969;48.576;12.580;2023-11-21T07:45:46;6.90;99.90
17701;DHT22;8969;48.576;12.580;2023-11-21T07:48:16;7.00;99.90
17701;DHT22;8969;48.576;12.580;2023-11-21T07:50:46;7.00;99.90
17701;DHT22;8969;48.576;12.580;2023-11-21T07:53:17;7.00;99.90
17701;DHT22;8969;48.576;12.580;2023-11-21T07:56:09;7.10;99.90
17701;DHT22;8969;48.576;12.580;2023-11-21T07:58:39;7.10;99.90
17701;DHT22;8969;48.576;12.580;2023-11-21T08:01:08;7.10;99.90
17701;DHT22;8969;48.576;12.580;2023-11-21T08:03:36;7.20;99.90
17701;DHT22;8969;48.576;12.580;2023-11-21T08:06:05;7.20;99.90
17701;DHT22;8969;48.576;12.580;2023-11-21T08:08:34;7.30;99.90
17701;DHT22;8969;48.576;12.580;2023-11-21T08:11:02;7.30;99.90
17701;DHT22;8969;48.576;12.580;2023-11-21T08:13:32;7.40;99.90
17701;DHT22;8969;48.576;12.580;2023-11-21T08:16:01;7.40;99.90
17701;DHT22;8969;48.576;12.580;2023-11-21T08:18:31;7.40;99.90
17701;DHT22;8969;48.576;12.580;2023-11-21T08:21:00;7.40;99.90
17701;DHT22;8969;48.576;12.580;2023-11-21T08:23:30;7.40;99.90
17701;DHT22;8969;48.576;12.580;2023-11-21T08:25:58;7.30;99.90
17701;DHT22;8969;48.576;12.580;2023-11-21T08:28:27;7.40;99.90
17701;DHT22;8969;48.576;12.580;2023-11-21T08:30:55;7.40;99.90
17701;DHT22;8969;48.576;12.580;2023-11-21T08:33:24;7.40;99.90
17701;DHT22;8969;48.576;12.580;2023-11-21T08:35:52;7.40;99.90
17701;DHT22;8969;48.576;12.580;2023-11-21T08:38:21;7.50;99.90
17701;DHT22;8969;48.576;12.580;2023-11-21T08:40:49;7.50;99.90
17701;DHT22;8969;48.576;12.580;2023-11-21T08:43:18;7.60;99.90
17701;DHT22;8969;48.576;12.580;2023-11-21T08:45:47;7.60;99.90
17701;DHT22;8969;48.576;12.580;2023-11-21T08:48:16;7.70;99.90
17701;DHT22;8969;48.576;12.580;2023-11-21T08:50:46;7.80;99.90
17701;DHT22;8969;48.576;12.580;2023-11-21T08:53:14;7.80;99.90
17701;DHT22;8969;48.576;12.580;2023-11-21T08:55:45;7.90;99.90
17701;DHT22;8969;48.576;12.580;2023-11-21T08:58:13;7.90;99.90
17701;DHT22;8969;48.576;12.580;2023-11-21T09:00:41;8.00;99.90
17701;DHT22;8969;48.576;12.580;2023-11-21T09:03:14;8.00;99.90
17701;DHT22;8969;48.576;12.580;2023-11-21T09:05:45;8.10;99.90
17701;DHT22;8969;48.576;12.580;2023-11-21T09:08:13;8.10;99.90
17701;DHT22;8969;48.576;12.580;2023-11-21T09:10:42;8.10;99.90
17701;DHT22;8969;48.576;12.580;2023-11-21T09:13:14;8.10;99.90
17701;DHT22;8969;48.576;12.580;2023-11-21T09:15:43;8.10;99.90
17701;DHT22;8969;48.576;12.580;2023-11-21T09:18:14;8.10;99.90
17701;DHT22;8969;48.576;12.580;2023-11-21T09:20:43;8.10;99.90
17701;DHT22;8969;48.576;12.580;2023-11-21T09:23:12;8.10;99.90
17701;DHT22;8969;48.576;12.580;2023-11-21T09:25:40;8.10;99.90
17701;DHT22;8969;48.576;12.580;2023-11-21T09:28:10;8.10;99.90
17701;DHT22;8969;48.576;12.580;2023-11-21T09:30:39;8.10;99.90
17701;DHT22;8969;48.576;12.580;2023-11-21T09:33:07;8.10;99.90
17701;DHT22;8969;48.576;12.580;2023-11-21T09:35:37;8.20;99.90
17701;DHT22;8969;48.576;12.580;2023-11-21T09:38:06;8.20;99.90
17701;DHT22;8969;48.576;12.580;2023-11-21T09:40:38;8.20;99.90
17701;DHT22;8969;48.576;12.580;2023-11-21T09:43:08;8.30;99.90
17701;DHT22;8969;48.576;12.580;2023-11-21T09:45:45;8.30;99.90
17701;DHT22;8969;48.576;12.580;2023-11-21T09:48:15;8.30;99.90
17701;DHT22;8969;48.576;12.580;2023-11-21T09:50:47;8.20;99.90
17701;DHT22;8969;48.576;12.580;2023-11-21T09:53:44;8.30;99.90
17701;DHT22;8969;48.576;12.580;2023-11-21T09:56:15;8.30;99.90
17701;DHT22;8969;48.576;12.580;2023-11-21T09:58:52;8.30;99.90
17701;DHT22;8969;48.576;12.580;2023-11-21T10:01:27;8.20;99.90
17701;DHT22;8969;48.576;12.580;2023-11-21T10:04:00;8.30;99.90
17701;DHT22;8969;48.576;12.580;2023-11-21T10:06:54;8.30;99.90
17701;DHT22;8969;48.576;12.580;2023-11-21T10:09:23;8.30;99.90
17701;DHT22;8969;48.576;12.580;2023-11-21T10:11:55;8.20;99.90
17701;DHT22;8969;48.576;12.580;2023-11-21T10:14:51;8.20;99.90
17701;DHT22;8969;48.576;12.580;2023-11-21T10:17:24;8.20;99.90
17701;DHT22;8969;48.576;12.580;2023-11-21T10:19:57;8.30;99.90
17701;DHT22;8969;48.576;12.580;2023-11-21T10:22:29;8.40;99.90
17701;DHT22;8969;48.576;12.580;2023-11-21T10:24:57;8.40;99.90
17701;DHT22;8969;48.576;12.580;2023-11-21T10:27:30;8.30;99.90
17701;DHT22;8969;48.576;12.580;2023-11-21T10:29:57;8.30;99.90
17701;DHT22;8969;48.576;12.580;2023-11-21T10:32:28;8.40;99.90
17701;DHT22;8969;48.576;12.580;2023-11-21T10:34:59;8.40;99.90
17701;DHT22;8969;48.576;12.580;2023-11-21T10:37:32;8.40;99.90
17701;DHT22;8969;48.576;12.580;2023-11-21T10:40:01;8.40;99.90
17701;DHT22;8969;48.576;12.580;2023-11-21T10:42:33;8.50;99.90
17701;DHT22;8969;48.576;12.580;2023-11-21T10:45:04;8.50;99.90
17701;DHT22;8969;48.576;12.580;2023-11-21T10:47:41;8.60;99.90
17701;DHT22;8969;48.576;12.580;2023-11-21T10:50:10;8.60;99.90
17701;DHT22;8969;48.576;12.580;2023-11-21T10:52:39;8.60;99.90
17701;DHT22;8969;48.576;12.580;2023-11-21T10:55:16;8.60;99.90
17701;DHT22;8969;48.576;12.580;2023-11-21T10:57:48;8.40;99.90
17701;DHT22;8969;48.576;12.580;2023-11-21T11:00:17;8.30;99.90
17701;DHT22;8969;48.576;12.580;2023-11-21T11:02:50;8.40;99.90
17701;DHT22;8969;48.576;12.580;2023-11-21T11:05:21;8.50;99.90
17701;DHT22;8969;48.576;12.580;2023-11-21T11:07:52;8.50;99.90
17701;DHT22;8969;48.576;12.580;2023-11-21T11:10:27;8.60;99.90
17701;DHT22;8969;48.576;12.580;2023-11-21T11:12:58;8.60;99.90
17701;DHT22;8969;48.576;12.580;2023-11-21T11:15:27;8.60;99.90
17701;DHT22;8969;48.576;12.580;2023-11-21T11:17:56;8.50;99.90
17701;DHT22;8969;48.576;12.580;2023-11-21T11:20:29;8.40;99.90
17701;DHT22;8969;48.576;12.580;2023-11-21T11:23:13;8.40;99.90
17701;DHT22;8969;48.576;12.580;2023-11-21T11:25:57;8.30;99.90
17701;DHT22;8969;48.576;12.580;2023-11-21T11:28:44;8.20;99.90
17701;DHT22;8969;48.576;12.580;2023-11-21T11:31:22;8.20;99.90
17701;DHT22;8969;48.576;12.580;2023-11-21T11:33:57;8.20;99.90
17701;DHT22;8969;48.576;12.580;2023-11-21T11:36:31;8.20;99.90
17701;DHT22;8969;48.576;12.580;2023-11-21T11:39:03;8.10;99.90
17701;DHT22;8969;48.576;12.580;2023-11-21T11:41:32;8.10;99.90
17701;DHT22;8969;48.576;12.580;2023-11-21T11:44:03;8.10;99.90
17701;DHT22;8969;48.576;12.580;2023-11-21T11:46:41;8.20;99.90
17701;DHT22;8969;48.576;12.580;2023-11-21T11:49:23;8.20;99.90
17701;DHT22;8969;48.576;12.580;2023-11-21T11:54:54;8.20;99.90
17701;DHT22;8969;48.576;12.580;2023-11-21T11:57:24;8.20;99.90
17701;DHT22;8969;48.576;12.580;2023-11-21T12:00:15;8.20;99.90
17701;DHT22;8969;48.576;12.580;2023-11-21T12:02:47;8.30;99.90
17701;DHT22;8969;48.576;12.580;2023-11-21T12:05:17;8.40;99.90
17701;DHT22;8969;48.576;12.580;2023-11-21T12:07:47;8.40;99.90
17701;DHT22;8969;48.576;12.580;2023-11-21T12:10:17;8.50;99.90
17701;DHT22;8969;48.576;12.580;2023-11-21T12:12:46;8.50;99.90
17701;DHT22;8969;48.576;12.580;2023-11-21T12:15:16;8.50;99.90
17701;DHT22;8969;48.576;12.580;2023-11-21T12:17:45;8.60;99.90
17701;DHT22;8969;48.576;12.580;2023-11-21T12:20:14;8.60;99.90
17701;DHT22;8969;48.576;12.580;2023-11-21T12:22:46;8.60;99.90
17701;DHT22;8969;48.576;12.580;2023-11-21T12:25:17;8.70;99.90
17701;DHT22;8969;48.576;12.580;2023-11-21T12:27:47;8.70;99.90
17701;DHT22;8969;48.576;12.580;2023-11-21T12:30:20;8.80;99.90
17701;DHT22;8969;48.576;12.580;2023-11-21T12:32:50;8.80;99.90
17701;DHT22;8969;48.576;12.580;2023-11-21T12:35:20;8.80;99.90
17701;DHT22;8969;48.576;12.580;2023-11-21T12:37:48;8.60;99.90
17701;DHT22;8969;48.576;12.580;2023-11-21T12:40:18;8.60;99.90
17701;DHT22;8969;48.576;12.580;2023-11-21T12:42:47;8.60;99.90
17701;DHT22;8969;48.576;12.580;2023-11-21T12:45:22;8.60;99.90
17701;DHT22;8969;48.576;12.580;2023-11-21T12:47:55;8.60;99.90
17701;DHT22;8969;48.576;12.580;2023-11-21T12:50:27;8.60;99.90
17701;DHT22;8969;48.576;12.580;2023-11-21T12:52:59;8.60;99.90
17701;DHT22;8969;48.576;12.580;2023-11-21T12:55:30;8.60;99.90
17701;DHT22;8969;48.576;12.580;2023-11-21T12:58:01;8.70;99.90
17701;DHT22;8969;48.576;12.580;2023-11-21T13:00:38;8.70;99.90
17701;DHT22;8969;48.576;12.580;2023-11-21T13:03:11;8.60;99.90
17701;DHT22;8969;48.576;12.580;2023-11-21T13:05:45;8.70;99.90
17701;DHT22;8969;48.576;12.580;2023-11-21T13:08:18;8.70;99.90
17701;DHT22;8969;48.576;12.580;2023-11-21T13:10:50;8.70;99.90
17701;DHT22;8969;48.576;12.580;2023-11-21T13:13:20;8.70;99.90
17701;DHT22;8969;48.576;12.580;2023-11-21T13:15:53;8.70;99.90
17701;DHT22;8969;48.576;12.580;2023-11-21T13:18:24;8.80;99.90
17701;DHT22;8969;48.576;12.580;2023-11-21T13:20:54;8.80;99.90
17701;DHT22;8969;48.576;12.580;2023-11-21T13:23:24;8.70;99.90
17701;DHT22;8969;48.576;12.580;2023-11-21T13:25:52;8.70;99.90
17701;DHT22;8969;48.576;12.580;2023-11-21T13:28:31;8.70;99.90
17701;DHT22;8969;48.576;12.580;2023-11-21T13:31:03;8.60;99.90
17701;DHT22;8969;48.576;12.580;2023-11-21T13:33:38;8.70;99.90
17701;DHT22;8969;48.576;12.580;2023-11-21T13:36:08;8.60;99.90
17701;DHT22;8969;48.576;12.580;2023-11-21T13:38:37;8.60;99.90
17701;DHT22;8969;48.576;12.580;2023-11-21T13:41:10;8.50;99.90
17701;DHT22;8969;48.576;12.580;2023-11-21T13:43:41;8.50;99.90
17701;DHT22;8969;48.576;12.580;2023-11-21T13:46:14;8.60;99.90
17701;DHT22;8969;48.576;12.580;2023-11-21T13:48:49;8.50;99.90
17701;DHT22;8969;48.576;12.580;2023-11-21T13:51:23;8.50;99.90
17701;DHT22;8969;48.576;12.580;2023-11-21T13:54:01;8.40;99.90
17701;DHT22;8969;48.576;12.580;2023-11-21T13:56:29;8.40;99.90
17701;DHT22;8969;48.576;12.580;2023-11-21T13:58:57;8.50;99.90
17701;DHT22;8969;48.576;12.580;2023-11-21T14:01:32;8.50;99.90
17701;DHT22;8969;48.576;12.580;2023-11-21T14:04:14;8.50;99.90
17701;DHT22;8969;48.576;12.580;2023-11-21T14:06:58;8.50;99.90
17701;DHT22;8969;48.576;12.580;2023-11-21T14:09:37;8.40;99.90
17701;DHT22;8969;48.576;12.580;2023-11-21T14:12:12;8.40;99.90
17701;DHT22;8969;48.576;12.580;2023-11-21T14:14:41;8.40;99.90
17701;DHT22;8969;48.576;12.580;2023-11-21T14:17:13;8.40;99.90
17701;DHT22;8969;48.576;12.580;2023-11-21T14:19:41;8.40;99.90
17701;DHT22;8969;48.576;12.580;2023-11-21T14:22:11;8.40;99.90
17701;DHT22;8969;48.576;12.580;2023-11-21T14:24:40;8.40;99.90
17701;DHT22;8969;48.576;12.580;2023-11-21T14:27:11;8.30;99.90
17701;DHT22;8969;48.576;12.580;2023-11-21T14:29:39;8.20;99.90
17701;DHT22;8969;48.576;12.580;2023-11-21T14:32:11;8.30;99.90
17701;DHT22;8969;48.576;12.580;2023-11-21T14:34:41;8.30;99.90
17701;DHT22;8969;48.576;12.580;2023-11-21T14:37:12;8.30;99.90
17701;DHT22;8969;48.576;12.580;2023-11-21T14:39:41;8.40;99.90
17701;DHT22;8969;48.576;12.580;2023-11-21T14:42:11;8.40;99.90
17701;DHT22;8969;48.576;12.580;2023-11-21T14:44:42;8.30;99.90
17701;DHT22;8969;48.576;12.580;2023-11-21T14:47:12;8.30;99.90
17701;DHT22;8969;48.576;12.580;2023-11-21T14:49:44;8.30;99.90
17701;DHT22;8969;48.576;12.580;2023-11-21T14:52:21;8.30;99.90
17701;DHT22;8969;48.576;12.580;2023-11-21T14:55:02;8.30;99.90
17701;DHT22;8969;48.576;12.580;2023-11-21T14:57:58;8.30;99.90
17701;DHT22;8969;48.576;12.580;2023-11-21T15:00:29;8.20;99.90
17701;DHT22;8969;48.576;12.580;2023-11-21T15:03:13;8.30;99.90
17701;DHT22;8969;48.576;12.580;2023-11-21T15:06:02;8.20;99.90
17701;DHT22;8969;48.576;12.580;2023-11-21T15:08:49;8.20;99.90
17701;DHT22;8969;48.576;12.580;2023-11-21T15:11:22;8.20;99.90
17701;DHT22;8969;48.576;12.580;2023-11-21T15:13:58;8.20;99.90
17701;DHT22;8969;48.576;12.580;2023-11-21T15:16:27;8.10;99.90
17701;DHT22;8969;48.576;12.580;2023-11-21T15:18:56;8.20;99.90
17701;DHT22;8969;48.576;12.580;2023-11-21T15:21:24;8.10;99.90
17701;DHT22;8969;48.576;12.580;2023-11-21T15:23:53;8.10;99.90
17701;DHT22;8969;48.576;12.580;2023-11-21T15:26:21;8.10;99.90
17701;DHT22;8969;48.576;12.580;2023-11-21T15:28:50;8.10;99.90
17701;DHT22;8969;48.576;12.580;2023-11-21T15:31:19;8.10;99.90
17701;DHT22;8969;48.576;12.580;2023-11-21T15:33:52;8.10;99.90
17701;DHT22;8969;48.576;12.580;2023-11-21T15:36:22;8.00;99.90
17701;DHT22;8969;48.576;12.580;2023-11-21T15:38:50;8.00;99.90
17701;DHT22;8969;48.576;12.580;2023-11-21T15:41:19;8.00;99.90
17701;DHT22;8969;48.576;12.580;2023-11-21T15:43:49;7.90;99.90
17701;DHT22;8969;48.576;12.580;2023-11-21T15:46:18;8.00;99.90
17701;DHT22;8969;48.576;12.580;2023-11-21T15:48:47;8.00;99.90
17701;DHT22;8969;48.576;12.580;2023-11-21T15:51:22;8.00;99.90
17701;DHT22;8969;48.576;12.580;2023-11-21T15:53:50;7.90;99.90
17701;DHT22;8969;48.576;12.580;2023-11-21T15:56:21;7.90;99.90
17701;DHT22;8969;48.576;12.580;2023-11-21T15:58:49;7.90;99.90
17701;DHT22;8969;48.576;12.580;2023-11-21T16:01:17;7.90;99.90
17701;DHT22;8969;48.576;12.580;2023-11-21T16:03:47;7.90;99.90
17701;DHT22;8969;48.576;12.580;2023-11-21T16:06:15;7.80;99.90
17701;DHT22;8969;48.576;12.580;2023-11-21T16:08:46;7.90;99.90
17701;DHT22;8969;48.576;12.580;2023-11-21T16:11:14;7.90;99.90